Time;durP1;ratioP1;P1;durP2;ratioP2;P2;SDS_P1;SDS_P2;PMS_P1;PMS_P2;Temp;Humidity;BMP_temperature;BMP_pressure;BME280_temperature;BME280_humidity;BME280_pressure;Samples;Min_cycle;Max_cycle;Signal;HPM_P1;HPM_P2
2023/03/02 00:01:45;;;;;;;21.35;13.85;;;3.30;99.90;;;;;;5113401;28;20035;-61
2023/03/02 00:04:35;;;;;;;23.07;13.03;;;3.30;99.90;;;;;;5115451;28;20040;-61
2023/03/02 00:07:06;;;;;;;20.33;12.35;;;3.30;99.90;;;;;;5093662;28;20289;-61
2023/03/02 00:09:32;;;;;;;21.67;12.18;;;3.30;99.90;;;;;;5076114;28;20514;-61
2023/03/02 00:11:58;;;;;;;23.02;13.05;;;3.20;99.90;;;;;;5090883;28;20041;-61
2023/03/02 00:14:24;;;;;;;20.67;13.10;;;3.20;99.90;;;;;;5090153;28;20043;-61
2023/03/02 00:16:49;;;;;;;21.15;13.02;;;3.20;99.90;;;;;;5072836;28;20413;-61
2023/03/02 00:19:15;;;;;;;16.98;11.07;;;3.10;99.90;;;;;;5056588;28;20041;-61
2023/03/02 00:21:41;;;;;;;16.05;10.07;;;3.10;99.90;;;;;;5055524;28;20401;-61
2023/03/02 00:24:07;;;;;;;15.20;10.55;;;3.10;99.90;;;;;;5073771;28;20036;-61
2023/03/02 00:26:33;;;;;;;16.33;9.75;;;3.10;99.90;;;;;;5104363;28;20038;-61
2023/03/02 00:28:59;;;;;;;20.10;10.18;;;3.10;99.90;;;;;;5114139;28;20369;-61
2023/03/02 00:31:25;;;;;;;19.35;10.75;;;3.00;99.90;;;;;;5112722;28;20046;-61
2023/03/02 00:33:53;;;;;;;16.25;9.32;;;3.00;99.90;;;;;;5114065;28;20151;-61
2023/03/02 00:36:20;;;;;;;16.50;9.95;;;3.00;99.90;;;;;;5095862;28;20047;-61
2023/03/02 00:38:46;;;;;;;14.48;9.25;;;3.00;99.90;;;;;;5055877;28;20060;-61
2023/03/02 00:41:14;;;;;;;16.83;9.82;;;3.00;99.90;;;;;;5074058;28;20107;-61
2023/03/02 00:43:39;;;;;;;16.45;9.77;;;3.00;99.90;;;;;;5072070;28;20036;-61
2023/03/02 00:46:13;;;;;;;16.75;10.05;;;3.00;99.90;;;;;;5056182;28;20119;-61
2023/03/02 00:48:39;;;;;;;16.55;10.90;;;3.00;99.90;;;;;;5072968;28;20042;-61
2023/03/02 00:51:05;;;;;;;21.38;11.40;;;3.00;99.90;;;;;;5096563;28;20126;-61
2023/03/02 00:53:32;;;;;;;16.30;9.25;;;3.00;99.90;;;;;;5114355;28;20408;-61
2023/03/02 00:55:58;;;;;;;15.13;9.88;;;3.00;99.90;;;;;;5114442;28;20039;-61
2023/03/02 00:58:25;;;;;;;16.20;10.48;;;3.00;99.90;;;;;;5113559;28;20050;-61
2023/03/02 01:00:51;;;;;;;17.92;10.50;;;3.00;99.90;;;;;;5113594;28;20074;-61
2023/03/02 01:03:16;;;;;;;17.17;9.30;;;2.90;99.90;;;;;;5114666;28;20076;-61
2023/03/02 01:05:42;;;;;;;19.58;10.15;;;2.90;99.90;;;;;;5112293;28;20047;-61
2023/03/02 01:08:08;;;;;;;18.33;11.40;;;2.90;99.90;;;;;;5096436;28;20040;-61
2023/03/02 01:10:33;;;;;;;16.42;9.55;;;2.90;99.90;;;;;;5072400;28;20508;-61
2023/03/02 01:12:59;;;;;;;15.10;9.00;;;2.90;99.90;;;;;;5071738;28;20064;-61
2023/03/02 01:15:25;;;;;;;14.73;8.60;;;2.90;99.90;;;;;;5071889;28;20040;-61
2023/03/02 01:17:50;;;;;;;15.85;9.60;;;2.80;99.90;;;;;;5073826;28;20103;-61
2023/03/02 01:20:17;;;;;;;17.13;10.23;;;2.80;99.90;;;;;;5088240;28;20044;-61
2023/03/02 01:22:43;;;;;;;13.57;8.80;;;2.80;99.90;;;;;;5097146;28;20495;-61
2023/03/02 01:25:10;;;;;;;15.27;9.23;;;2.70;99.90;;;;;;5096684;28;20577;-61
2023/03/02 01:27:36;;;;;;;15.98;9.20;;;2.70;99.90;;;;;;5071177;28;20063;-61
2023/03/02 01:30:02;;;;;;;17.30;9.27;;;2.70;99.90;;;;;;5073721;28;20036;-61
2023/03/02 01:32:28;;;;;;;13.85;8.73;;;2.60;99.90;;;;;;5072824;28;20110;-61
2023/03/02 01:34:53;;;;;;;15.75;10.20;;;2.60;99.90;;;;;;5072769;28;20482;-61
2023/03/02 01:37:21;;;;;;;15.32;9.43;;;2.60;99.90;;;;;;5055224;28;20074;-61
2023/03/02 01:39:48;;;;;;;14.05;9.15;;;2.50;99.90;;;;;;5083219;28;20123;-61
2023/03/02 01:42:13;;;;;;;15.50;9.23;;;2.40;99.90;;;;;;5103034;28;20055;-61
2023/03/02 01:44:45;;;;;;;20.17;9.77;;;2.40;99.90;;;;;;5113823;28;20077;-61
2023/03/02 01:47:23;;;;;;;17.80;10.50;;;2.40;99.90;;;;;;5094320;28;20035;-61
2023/03/02 01:50:00;;;;;;;13.23;9.23;;;2.30;99.90;;;;;;5111975;28;20124;-61
2023/03/02 01:52:28;;;;;;;13.20;8.93;;;2.30;99.90;;;;;;5113050;28;20039;-61
2023/03/02 01:54:56;;;;;;;14.15;8.45;;;2.20;99.90;;;;;;5111609;28;20047;-61
2023/03/02 01:57:27;;;;;;;16.33;9.38;;;2.20;99.90;;;;;;5096021;28;20048;-61
2023/03/02 01:59:56;;;;;;;15.07;9.85;;;2.20;99.90;;;;;;5072077;28;20045;-61
2023/03/02 02:02:22;;;;;;;14.40;9.10;;;2.10;99.90;;;;;;5071967;28;20046;-61
2023/03/02 02:04:49;;;;;;;16.40;9.35;;;2.10;99.90;;;;;;5071498;28;20136;-61
2023/03/02 02:07:15;;;;;;;15.10;9.85;;;2.00;99.90;;;;;;5071385;28;20052;-61
2023/03/02 02:09:47;;;;;;;19.42;9.95;;;2.00;99.90;;;;;;5071752;28;20543;-61
2023/03/02 02:12:19;;;;;;;18.23;10.40;;;2.00;99.90;;;;;;5084611;28;20040;-61
2023/03/02 02:14:45;;;;;;;18.98;10.43;;;1.90;99.90;;;;;;5088105;28;20097;-61
2023/03/02 02:17:12;;;;;;;18.35;11.43;;;1.90;99.90;;;;;;5070526;28;20355;-61
2023/03/02 02:19:49;;;;;;;17.63;12.38;;;1.90;99.90;;;;;;5071085;28;20166;-61
2023/03/02 02:22:27;;;;;;;15.77;10.38;;;1.80;99.90;;;;;;5070394;28;20123;-61
2023/03/02 02:24:57;;;;;;;15.38;10.20;;;1.80;99.90;;;;;;5071497;28;20515;-61
2023/03/02 02:27:32;;;;;;;14.57;10.27;;;1.80;99.90;;;;;;5072345;28;20082;-61
2023/03/02 02:30:00;;;;;;;17.58;11.27;;;1.70;99.90;;;;;;5091756;28;20484;-61
2023/03/02 02:32:30;;;;;;;18.33;11.55;;;1.70;99.90;;;;;;5087641;28;20397;-61
2023/03/02 02:35:26;;;;;;;16.85;11.43;;;1.70;99.90;;;;;;5071208;28;20036;-61
2023/03/02 02:38:00;;;;;;;20.38;13.05;;;1.60;99.90;;;;;;5071556;28;20036;-61
2023/03/02 02:40:41;;;;;;;18.60;11.73;;;1.60;99.90;;;;;;5070161;28;20076;-61
2023/03/02 02:43:09;;;;;;;16.70;11.52;;;1.50;99.90;;;;;;5054042;28;20516;-61
2023/03/02 02:45:35;;;;;;;19.88;11.13;;;1.60;99.90;;;;;;5076025;28;20119;-61
2023/03/02 02:48:00;;;;;;;17.33;10.88;;;1.50;99.90;;;;;;5087826;28;20084;-61
2023/03/02 02:50:32;;;;;;;21.00;11.30;;;1.50;99.90;;;;;;5052931;28;20072;-61
2023/03/02 02:53:20;;;;;;;19.40;12.23;;;1.60;99.90;;;;;;5066229;28;20085;-61
2023/03/02 02:55:49;;;;;;;18.48;12.10;;;1.60;99.90;;;;;;5080697;28;20036;-61
2023/03/02 02:58:29;;;;;;;20.10;12.23;;;1.60;99.90;;;;;;5091252;28;20503;-61
2023/03/02 03:00:54;;;;;;;17.23;12.25;;;1.60;99.90;;;;;;5091527;28;20466;-61
2023/03/02 03:03:29;;;;;;;16.98;10.85;;;1.70;99.90;;;;;;5090744;28;20078;-61
2023/03/02 03:06:00;;;;;;;18.02;10.45;;;1.70;99.90;;;;;;5086884;28;20084;-61
2023/03/02 03:09:01;;;;;;;18.85;10.85;;;1.70;99.90;;;;;;5083879;28;20051;-61
2023/03/02 03:11:29;;;;;;;20.85;12.75;;;1.70;99.90;;;;;;5058113;28;20500;-61
2023/03/02 03:14:11;;;;;;;20.98;12.27;;;1.70;99.90;;;;;;5092236;28;20052;-61
2023/03/02 03:16:39;;;;;;;22.52;12.23;;;1.80;99.90;;;;;;5090814;28;20040;-61
2023/03/02 03:19:24;;;;;;;23.65;12.90;;;1.80;99.90;;;;;;5091262;28;20052;-61
2023/03/02 03:21:53;;;;;;;21.13;12.53;;;1.80;99.90;;;;;;5087543;28;20040;-61
2023/03/02 03:24:20;;;;;;;26.35;14.38;;;1.80;99.90;;;;;;5070393;28;20298;-61
2023/03/02 03:26:46;;;;;;;29.02;15.98;;;1.80;99.90;;;;;;5070981;28;20108;-61
2023/03/02 03:29:14;;;;;;;31.85;17.13;;;1.90;99.90;;;;;;5070673;28;20451;-61
2023/03/02 03:31:40;;;;;;;36.60;18.27;;;1.90;99.90;;;;;;5058244;28;20032;-61
2023/03/02 03:34:06;;;;;;;32.33;18.63;;;1.90;99.90;;;;;;5073476;28;20380;-61
2023/03/02 03:36:33;;;;;;;32.17;17.52;;;1.90;99.90;;;;;;5090435;28;20035;-61
2023/03/02 03:38:59;;;;;;;35.53;19.67;;;1.90;99.90;;;;;;5087202;28;20037;-61
2023/03/02 03:41:26;;;;;;;31.30;16.75;;;1.90;99.90;;;;;;5069068;28;20090;-61
2023/03/02 03:43:52;;;;;;;32.47;18.27;;;1.90;99.90;;;;;;5071903;28;20063;-61
2023/03/02 03:46:18;;;;;;;33.33;17.65;;;1.90;99.90;;;;;;5070025;28;20618;-61
2023/03/02 03:48:44;;;;;;;28.88;17.23;;;1.90;99.90;;;;;;5070671;28;20136;-61
2023/03/02 03:51:10;;;;;;;30.25;17.15;;;1.90;99.90;;;;;;5069825;28;20044;-61
2023/03/02 03:53:36;;;;;;;28.70;16.60;;;1.90;99.90;;;;;;5072610;28;20036;-61
2023/03/02 03:56:03;;;;;;;27.10;16.65;;;1.90;99.90;;;;;;5088633;28;20040;-61
2023/03/02 03:58:30;;;;;;;30.73;17.73;;;1.90;99.90;;;;;;5074696;28;20123;-61
2023/03/02 04:00:56;;;;;;;31.67;17.85;;;1.80;99.90;;;;;;5056586;28;20044;-61
2023/03/02 04:03:24;;;;;;;30.83;17.52;;;1.80;99.90;;;;;;5073781;28;20041;-61
2023/03/02 04:05:50;;;;;;;33.63;19.23;;;1.80;99.90;;;;;;5073599;28;20055;-61
2023/03/02 04:08:16;;;;;;;32.28;18.45;;;1.80;99.90;;;;;;5072779;28;20036;-61
2023/03/02 04:10:42;;;;;;;34.80;19.10;;;1.80;99.90;;;;;;5077599;28;20046;-61
2023/03/02 04:13:07;;;;;;;37.63;18.35;;;1.80;99.90;;;;;;5093815;28;20039;-61
2023/03/02 04:15:34;;;;;;;34.40;19.52;;;1.80;99.90;;;;;;5094192;28;20089;-61
2023/03/02 04:17:59;;;;;;;38.10;20.15;;;1.80;99.90;;;;;;5094289;28;20430;-60
2023/03/02 04:20:26;;;;;;;39.30;20.83;;;1.80;99.90;;;;;;5093178;28;20051;-61
2023/03/02 04:22:53;;;;;;;37.10;19.17;;;1.80;99.90;;;;;;5094441;28;20122;-61
2023/03/02 04:25:21;;;;;;;37.55;19.10;;;1.80;99.90;;;;;;5094741;28;20055;-61
2023/03/02 04:27:49;;;;;;;38.97;19.48;;;1.70;99.90;;;;;;5094843;28;20385;-61
2023/03/02 04:30:20;;;;;;;44.92;21.88;;;1.70;99.90;;;;;;5093879;28;20058;-61
2023/03/02 04:32:46;;;;;;;43.88;21.75;;;1.70;99.90;;;;;;5093434;28;20039;-61
2023/03/02 04:35:15;;;;;;;56.88;22.73;;;1.70;99.90;;;;;;5094449;28;20032;-61
2023/03/02 04:37:42;;;;;;;37.17;21.60;;;1.60;99.90;;;;;;5092662;28;20032;-61
2023/03/02 04:40:10;;;;;;;45.67;22.15;;;1.70;99.90;;;;;;5093141;28;20032;-61
2023/03/02 04:42:36;;;;;;;50.00;22.58;;;1.70;99.90;;;;;;5093380;28;20047;-61
2023/03/02 04:45:02;;;;;;;48.45;22.92;;;1.70;99.90;;;;;;5089359;28;20150;-61
2023/03/02 04:47:27;;;;;;;51.83;25.30;;;1.70;99.90;;;;;;5103399;28;20044;-61
2023/03/02 04:49:53;;;;;;;46.38;25.10;;;1.70;99.90;;;;;;5093504;28;20127;-61
2023/03/02 04:52:24;;;;;;;51.35;25.50;;;1.70;99.90;;;;;;5093289;28;20072;-61
2023/03/02 04:54:50;;;;;;;49.42;26.75;;;1.70;99.90;;;;;;5076245;28;20135;-61
2023/03/02 04:57:16;;;;;;;52.83;25.80;;;1.80;99.90;;;;;;5093266;28;20123;-61
2023/03/02 04:59:42;;;;;;;49.13;27.13;;;1.80;99.90;;;;;;5094185;28;20123;-61
2023/03/02 05:02:07;;;;;;;49.13;26.67;;;1.90;99.90;;;;;;5072580;28;20070;-61
2023/03/02 05:04:33;;;;;;;55.00;26.63;;;1.90;99.90;;;;;;5073220;28;20048;-61
2023/03/02 05:06:58;;;;;;;50.65;27.63;;;1.90;99.90;;;;;;5092957;28;20476;-61
2023/03/02 05:09:29;;;;;;;53.90;29.35;;;1.90;99.90;;;;;;5075538;28;20056;-61
2023/03/02 05:11:57;;;;;;;48.88;26.42;;;1.90;99.90;;;;;;5093458;28;20040;-61
2023/03/02 05:14:23;;;;;;;57.92;29.38;;;2.00;99.90;;;;;;5092526;28;20039;-61
2023/03/02 05:16:49;;;;;;;58.42;30.33;;;2.00;99.90;;;;;;5092669;28;20082;-61
2023/03/02 05:19:15;;;;;;;56.97;29.92;;;2.00;99.90;;;;;;5093026;28;20036;-61
2023/03/02 05:21:41;;;;;;;64.40;30.83;;;2.00;99.90;;;;;;5093919;28;20040;-61
2023/03/02 05:24:07;;;;;;;58.88;30.77;;;2.00;99.90;;;;;;5092378;28;20061;-61
2023/03/02 05:26:32;;;;;;;63.22;31.10;;;1.90;99.90;;;;;;5091788;28;20036;-61
2023/03/02 05:28:58;;;;;;;76.95;33.08;;;1.90;99.90;;;;;;5093750;28;20032;-61
2023/03/02 05:31:30;;;;;;;81.00;34.30;;;1.90;99.90;;;;;;5088825;28;20041;-61
2023/03/02 05:33:55;;;;;;;84.78;35.88;;;1.90;99.90;;;;;;5076633;28;20044;-61
2023/03/02 05:36:21;;;;;;;79.50;35.70;;;1.90;99.90;;;;;;5071970;28;20500;-61
2023/03/02 05:38:47;;;;;;;76.35;33.17;;;1.90;99.90;;;;;;5073133;28;20025;-61
2023/03/02 05:41:13;;;;;;;83.30;38.08;;;1.90;99.90;;;;;;5070884;28;20650;-61
2023/03/02 05:43:38;;;;;;;84.45;36.03;;;1.90;99.90;;;;;;5073036;28;20147;-61
2023/03/02 05:46:04;;;;;;;76.38;35.05;;;1.90;99.90;;;;;;5077026;28;20118;-61
2023/03/02 05:48:31;;;;;;;78.72;35.50;;;1.90;99.90;;;;;;5091819;28;20040;-61
2023/03/02 05:50:57;;;;;;;84.53;35.55;;;1.90;99.90;;;;;;5071707;28;20056;-61
2023/03/02 05:53:23;;;;;;;73.13;36.13;;;1.90;99.90;;;;;;5072069;28;20404;-61
2023/03/02 05:55:49;;;;;;;90.53;39.03;;;2.00;99.90;;;;;;5071423;28;20036;-61
2023/03/02 05:58:17;;;;;;;111.85;42.20;;;1.90;99.90;;;;;;5071574;28;20549;-61
2023/03/02 06:00:43;;;;;;;98.60;42.67;;;2.00;99.90;;;;;;5072126;28;20054;-61
2023/03/02 06:03:09;;;;;;;123.90;53.63;;;1.90;99.90;;;;;;5090034;28;20127;-61
2023/03/02 06:05:35;;;;;;;104.63;46.78;;;2.00;99.90;;;;;;5091671;28;20119;-61
2023/03/02 06:08:01;;;;;;;104.18;45.10;;;1.90;99.90;;;;;;5087795;28;20041;-61
2023/03/02 06:10:28;;;;;;;101.35;45.63;;;2.00;99.90;;;;;;5070933;28;20076;-61
2023/03/02 06:12:55;;;;;;;90.82;40.08;;;2.00;99.90;;;;;;5071367;28;20052;-60
2023/03/02 06:15:21;;;;;;;95.28;40.85;;;2.00;99.90;;;;;;5071446;28;20531;-61
2023/03/02 06:17:47;;;;;;;95.35;43.42;;;2.00;99.90;;;;;;5079828;28;20039;-61
2023/03/02 06:20:14;;;;;;;91.72;38.97;;;2.10;99.90;;;;;;5071754;28;20511;-61
2023/03/02 06:22:44;;;;;;;88.97;41.75;;;2.10;99.90;;;;;;5087088;28;20076;-61
2023/03/02 06:25:11;;;;;;;92.95;38.80;;;2.10;99.90;;;;;;5081687;28;20089;-61
2023/03/02 06:27:39;;;;;;;88.43;37.92;;;2.00;99.90;;;;;;5091125;28;20122;-61
2023/03/02 06:30:07;;;;;;;93.35;37.58;;;2.10;99.90;;;;;;5090366;28;20055;-61
2023/03/02 06:32:34;;;;;;;83.13;38.83;;;2.20;99.90;;;;;;5091063;28;20036;-61
2023/03/02 06:35:00;;;;;;;78.90;35.63;;;2.20;99.90;;;;;;5090400;28;20044;-61
2023/03/02 06:37:27;;;;;;;96.60;45.55;;;2.20;99.90;;;;;;5091140;28;20468;-61
2023/03/02 06:39:54;;;;;;;183.30;95.20;;;2.30;99.90;;;;;;5091192;28;20148;-61
2023/03/02 06:42:20;;;;;;;85.78;41.13;;;2.30;99.90;;;;;;5090134;28;20044;-61
2023/03/02 06:44:47;;;;;;;83.22;38.20;;;2.30;99.90;;;;;;5094819;28;20041;-61
2023/03/02 06:47:12;;;;;;;82.18;34.88;;;2.30;99.90;;;;;;5090745;28;20043;-61
2023/03/02 06:49:38;;;;;;;70.90;34.63;;;2.30;99.90;;;;;;5091213;28;20048;-61
2023/03/02 06:52:06;;;;;;;74.70;31.98;;;2.30;99.90;;;;;;5091950;28;20120;-61
2023/03/02 06:54:32;;;;;;;71.55;34.80;;;2.40;99.90;;;;;;5089008;28;20117;-61
2023/03/02 06:56:58;;;;;;;78.90;34.40;;;2.40;99.90;;;;;;5111853;28;20036;-61
2023/03/02 06:59:23;;;;;;;72.43;34.53;;;2.40;99.90;;;;;;5093790;28;20042;-61
2023/03/02 07:01:50;;;;;;;74.55;33.63;;;2.40;99.90;;;;;;5094313;28;20039;-61
2023/03/02 07:04:16;;;;;;;72.88;33.10;;;2.40;99.90;;;;;;5086913;28;20036;-61
2023/03/02 07:06:42;;;;;;;78.00;36.75;;;2.40;99.90;;;;;;5103141;28;20036;-61
2023/03/02 07:09:07;;;;;;;70.82;33.15;;;2.50;99.90;;;;;;5091928;28;20024;-61
2023/03/02 07:11:33;;;;;;;64.40;32.08;;;2.50;99.90;;;;;;5091401;28;20492;-61
2023/03/02 07:14:00;;;;;;;77.80;34.03;;;2.50;99.90;;;;;;5080782;28;20040;-61
2023/03/02 07:16:25;;;;;;;59.40;28.90;;;2.40;99.90;;;;;;5067748;28;20040;-61
2023/03/02 07:18:52;;;;;;;62.30;30.83;;;2.50;99.90;;;;;;5079783;28;20031;-61
2023/03/02 07:21:18;;;;;;;72.35;34.17;;;2.50;99.90;;;;;;5091821;28;20044;-61
2023/03/02 07:23:43;;;;;;;66.15;32.35;;;2.50;99.90;;;;;;5109850;28;20093;-61
2023/03/02 07:26:09;;;;;;;69.43;31.90;;;2.40;99.90;;;;;;5107307;28;20083;-61
2023/03/02 07:28:38;;;;;;;68.32;34.33;;;2.40;99.90;;;;;;5108291;28;20047;-61
2023/03/02 07:31:04;;;;;;;78.35;33.97;;;2.40;99.90;;;;;;5073809;28;20089;-61
2023/03/02 07:33:30;;;;;;;74.38;33.60;;;2.40;99.90;;;;;;5095685;28;20044;-61
2023/03/02 07:35:56;;;;;;;83.22;34.83;;;2.40;99.90;;;;;;5112561;28;20039;-61
2023/03/02 07:38:22;;;;;;;72.30;34.88;;;2.40;99.90;;;;;;5111666;28;20108;-61
2023/03/02 07:40:48;;;;;;;74.75;34.22;;;2.40;99.90;;;;;;5109385;28;20059;-61
2023/03/02 07:43:14;;;;;;;74.57;35.10;;;2.40;99.90;;;;;;5112275;28;20056;-61
2023/03/02 07:45:39;;;;;;;80.82;37.42;;;2.30;99.90;;;;;;5111807;28;20054;-61
2023/03/02 07:48:06;;;;;;;83.22;34.72;;;2.40;99.90;;;;;;5089854;28;20106;-61
2023/03/02 07:50:32;;;;;;;82.03;37.55;;;2.40;99.90;;;;;;5054545;28;20098;-61
2023/03/02 07:52:57;;;;;;;66.95;30.70;;;2.40;99.90;;;;;;5072309;28;20817;-61
2023/03/02 07:55:23;;;;;;;73.35;32.85;;;2.40;99.90;;;;;;5080619;28;20036;-61
2023/03/02 07:57:49;;;;;;;77.88;33.60;;;2.40;99.90;;;;;;5090289;28;20035;-61
2023/03/02 08:00:15;;;;;;;69.45;33.05;;;2.40;99.90;;;;;;5090435;28;20044;-61
2023/03/02 08:02:42;;;;;;;76.65;36.05;;;2.40;99.90;;;;;;5090905;28;20462;-62
2023/03/02 08:05:10;;;;;;;70.43;30.83;;;2.40;99.90;;;;;;5074541;28;20048;-61
2023/03/02 08:07:35;;;;;;;118.13;50.72;;;2.40;99.90;;;;;;5073525;28;20484;-62
2023/03/02 08:10:01;;;;;;;102.57;43.88;;;2.40;99.90;;;;;;5091491;28;20058;-61
2023/03/02 08:12:28;;;;;;;244.48;96.28;;;2.40;99.90;;;;;;5097874;28;20507;-61
2023/03/02 08:14:53;;;;;;;248.25;100.93;;;2.40;99.90;;;;;;5092216;28;20089;-61
2023/03/02 08:17:19;;;;;;;93.32;44.58;;;2.50;99.90;;;;;;5070901;28;20413;-61
2023/03/02 08:19:45;;;;;;;73.50;36.95;;;2.50;99.90;;;;;;5070739;28;20047;-61
2023/03/02 08:22:11;;;;;;;57.22;31.15;;;2.50;99.90;;;;;;5071349;28;20041;-61
2023/03/02 08:24:37;;;;;;;64.65;29.15;;;2.50;99.90;;;;;;5076045;28;20035;-61
2023/03/02 08:27:03;;;;;;;60.47;28.42;;;2.50;99.90;;;;;;5072344;28;20072;-61
2023/03/02 08:29:29;;;;;;;62.38;29.90;;;2.40;99.90;;;;;;5072052;28;20127;-61
2023/03/02 08:31:55;;;;;;;63.65;28.17;;;2.50;99.90;;;;;;5069177;28;20552;-61
2023/03/02 08:34:21;;;;;;;64.47;28.70;;;2.50;99.90;;;;;;5078556;28;20123;-61
2023/03/02 08:36:47;;;;;;;59.88;28.08;;;2.50;99.90;;;;;;5069464;28;20048;-61
2023/03/02 08:39:14;;;;;;;59.92;29.60;;;2.50;99.90;;;;;;5070567;28;20135;-61
2023/03/02 08:41:40;;;;;;;62.63;28.08;;;2.60;99.90;;;;;;5090050;28;20328;-61
2023/03/02 08:44:07;;;;;;;67.13;27.55;;;2.60;99.90;;;;;;5087954;28;20101;-61
2023/03/02 08:46:33;;;;;;;71.28;29.50;;;2.60;99.90;;;;;;5091898;28;20036;-61
2023/03/02 08:48:59;;;;;;;76.00;30.63;;;2.60;99.90;;;;;;5077583;28;20543;-61
2023/03/02 08:51:25;;;;;;;63.75;27.08;;;2.70;99.90;;;;;;5063873;28;20220;-61
2023/03/02 08:53:54;;;;;;;57.97;29.20;;;2.70;99.90;;;;;;5082613;28;20047;-61
2023/03/02 08:56:30;;;;;;;65.60;31.15;;;2.70;99.90;;;;;;5097473;28;20382;-61
2023/03/02 08:59:02;;;;;;;68.72;28.63;;;2.80;99.90;;;;;;5090927;28;20050;-61
2023/03/02 09:01:31;;;;;;;70.60;32.88;;;2.80;99.90;;;;;;5089684;28;20051;-61
2023/03/02 09:03:59;;;;;;;66.22;29.73;;;2.90;99.90;;;;;;5090965;28;20519;-61
2023/03/02 09:06:29;;;;;;;70.57;30.65;;;2.90;99.90;;;;;;5083445;28;20047;-61
2023/03/02 09:08:56;;;;;;;63.83;29.73;;;2.90;99.90;;;;;;5076311;28;20505;-61
2023/03/02 09:11:21;;;;;;;62.15;27.58;;;2.90;99.90;;;;;;5089081;28;20040;-61
2023/03/02 09:13:47;;;;;;;64.38;28.17;;;2.90;99.90;;;;;;5080732;28;20366;-61
2023/03/02 09:16:13;;;;;;;63.15;29.48;;;2.90;99.90;;;;;;5089966;28;20068;-61
2023/03/02 09:18:39;;;;;;;66.28;29.60;;;2.90;99.90;;;;;;5090529;28;20051;-61
2023/03/02 09:21:05;;;;;;;62.08;27.98;;;2.90;99.90;;;;;;5090830;28;20044;-61
2023/03/02 09:23:32;;;;;;;57.75;25.80;;;3.00;99.90;;;;;;5093596;28;20043;-61
2023/03/02 09:25:58;;;;;;;49.97;25.38;;;3.10;99.90;;;;;;5100893;28;20074;-61
2023/03/02 09:28:24;;;;;;;56.20;26.00;;;3.10;99.90;;;;;;5086589;28;20121;-61
2023/03/02 09:30:52;;;;;;;56.80;25.10;;;3.20;99.90;;;;;;5090821;28;20488;-61
2023/03/02 09:33:18;;;;;;;58.08;24.73;;;3.20;99.90;;;;;;5070662;28;20044;-61
2023/03/02 09:35:46;;;;;;;57.10;25.98;;;3.20;99.90;;;;;;5089797;28;20093;-61
2023/03/02 09:38:15;;;;;;;55.08;26.23;;;3.10;99.90;;;;;;5088305;28;20036;-61
2023/03/02 09:41:08;;;;;;;48.50;24.73;;;3.10;99.90;;;;;;5072773;28;20404;-61
2023/03/02 09:44:01;;;;;;;58.70;25.95;;;3.10;99.90;;;;;;5076580;28;20044;-61
2023/03/02 09:46:45;;;;;;;53.65;26.67;;;3.20;99.90;;;;;;5111281;28;20040;-61
2023/03/02 09:49:33;;;;;;;52.20;27.43;;;3.30;99.90;;;;;;5104565;28;20071;-61
2023/03/02 09:52:12;;;;;;;51.38;25.02;;;3.40;99.90;;;;;;5091288;28;20135;-61
2023/03/02 09:54:39;;;;;;;59.17;28.58;;;3.40;99.90;;;;;;5094851;28;20065;-61
2023/03/02 09:57:33;;;;;;;53.78;24.80;;;3.50;99.90;;;;;;5113914;28;20426;-61
2023/03/02 10:00:11;;;;;;;42.50;21.55;;;3.50;99.90;;;;;;5085513;28;20123;-61
2023/03/02 10:02:44;;;;;;;40.67;19.70;;;3.60;99.90;;;;;;5071746;28;20040;-61
2023/03/02 10:05:19;;;;;;;39.45;19.35;;;3.60;99.90;;;;;;5080568;28;20036;-61
2023/03/02 10:07:46;;;;;;;45.83;21.48;;;3.70;99.90;;;;;;5075043;28;20048;-61
2023/03/02 10:10:23;;;;;;;49.03;21.60;;;3.70;99.90;;;;;;5071649;28;20123;-61
2023/03/02 10:12:55;;;;;;;40.75;20.52;;;3.80;99.90;;;;;;5074237;28;20037;-61
2023/03/02 10:15:33;;;;;;;44.83;21.70;;;3.80;99.90;;;;;;5070580;28;20135;-61
2023/03/02 10:18:30;;;;;;;47.40;22.85;;;3.90;99.90;;;;;;5057418;28;20031;-60
2023/03/02 10:21:05;;;;;;;39.10;19.95;;;4.00;99.90;;;;;;5083362;28;20055;-60
2023/03/02 10:23:48;;;;;;;52.77;23.30;;;4.10;99.90;;;;;;5071332;28;20048;-60
2023/03/02 10:26:16;;;;;;;53.00;24.83;;;4.10;99.90;;;;;;5072372;28;20266;-60
2023/03/02 10:28:50;;;;;;;49.47;23.90;;;4.10;99.90;;;;;;5070272;28;20074;-60
2023/03/02 10:31:27;;;;;;;40.90;19.57;;;4.20;99.90;;;;;;5072123;28;20041;-60
2023/03/02 10:33:54;;;;;;;44.13;22.30;;;4.20;99.90;;;;;;5077870;28;20089;-60
2023/03/02 10:36:36;;;;;;;57.67;31.13;;;4.20;99.90;;;;;;5073989;28;20047;-60
2023/03/02 10:39:09;;;;;;;83.43;40.85;;;4.30;99.90;;;;;;5054377;28;20501;-61
2023/03/02 10:41:45;;;;;;;64.63;29.90;;;4.30;99.90;;;;;;5075080;28;20052;-61
2023/03/02 10:44:14;;;;;;;53.10;30.52;;;4.40;99.90;;;;;;5090909;28;20063;-61
2023/03/02 10:46:42;;;;;;;46.83;25.77;;;4.50;99.90;;;;;;5091119;28;20051;-61
2023/03/02 10:49:40;;;;;;;54.10;28.58;;;4.50;99.90;;;;;;5085204;28;20040;-61
2023/03/02 10:52:13;;;;;;;47.15;22.30;;;4.60;99.90;;;;;;5092478;28;20130;-61
2023/03/02 10:54:39;;;;;;;37.40;19.15;;;4.70;99.90;;;;;;5090024;28;20040;-61
2023/03/02 10:57:42;;;;;;;40.97;21.92;;;4.80;99.90;;;;;;5081410;28;20127;-61
2023/03/02 11:00:24;;;;;;;50.05;25.45;;;4.80;99.90;;;;;;5064607;28;20044;-60
2023/03/02 11:03:02;;;;;;;39.38;19.25;;;4.90;99.90;;;;;;5071593;28;20052;-61
2023/03/02 11:05:36;;;;;;;37.20;19.98;;;5.00;99.90;;;;;;5060576;28;20507;-60
2023/03/02 11:08:03;;;;;;;37.25;21.77;;;5.00;99.90;;;;;;5093927;28;20054;-61
2023/03/02 11:10:35;;;;;;;33.33;16.85;;;5.10;99.90;;;;;;5096705;28;20097;-61
2023/03/02 11:13:15;;;;;;;34.25;16.67;;;5.20;99.90;;;;;;5072612;28;20043;-61
2023/03/02 11:15:47;;;;;;;28.42;15.25;;;5.30;99.90;;;;;;5080048;28;20076;-61
2023/03/02 11:18:45;;;;;;;31.02;15.57;;;5.40;99.90;;;;;;5078076;28;20036;-60
2023/03/02 11:21:22;;;;;;;28.60;16.92;;;5.50;99.90;;;;;;5084727;28;20120;-61
2023/03/02 11:24:03;;;;;;;30.05;15.77;;;5.50;99.90;;;;;;5094001;28;20047;-60
2023/03/02 11:26:59;;;;;;;32.47;16.02;;;5.60;99.90;;;;;;5081020;28;20040;-61
2023/03/02 11:29:27;;;;;;;30.70;15.85;;;5.70;99.90;;;;;;5071390;28;20052;-61
2023/03/02 11:32:17;;;;;;;27.35;15.38;;;5.60;99.90;;;;;;5092832;28;20046;-61
2023/03/02 11:34:52;;;;;;;31.52;15.10;;;5.50;99.90;;;;;;5089363;28;20036;-60
2023/03/02 11:37:41;;;;;;;26.27;14.00;;;5.50;99.90;;;;;;5074115;28;20041;-61
2023/03/02 11:40:25;;;;;;;27.40;16.38;;;5.60;99.90;;;;;;5099329;28;20073;-61
2023/03/02 11:42:54;;;;;;;31.33;17.10;;;5.70;99.90;;;;;;5094587;28;20035;-61
2023/03/02 11:45:27;;;;;;;31.90;15.30;;;5.70;99.90;;;;;;5109606;28;20047;-61
2023/03/02 11:48:04;;;;;;;30.13;14.32;;;5.70;99.90;;;;;;5112352;28;20085;-61
2023/03/02 11:50:35;;;;;;;29.80;14.90;;;5.80;99.90;;;;;;5110424;28;20543;-61
2023/03/02 11:53:05;;;;;;;26.50;13.07;;;5.80;99.90;;;;;;5111443;28;20047;-61
2023/03/02 11:55:39;;;;;;;26.17;14.93;;;5.70;99.90;;;;;;5111051;28;20384;-61
2023/03/02 11:58:06;;;;;;;22.88;12.90;;;5.70;99.90;;;;;;5110667;28;20096;-61
2023/03/02 12:00:41;;;;;;;26.50;12.48;;;5.70;99.90;;;;;;5109948;28;20082;-61
2023/03/02 12:03:16;;;;;;;23.60;11.65;;;5.60;99.90;;;;;;5110857;28;20047;-61
2023/03/02 12:05:44;;;;;;;28.00;15.50;;;5.60;99.90;;;;;;5093605;28;20044;-61
2023/03/02 12:08:19;;;;;;;23.02;12.45;;;5.60;99.90;;;;;;5110928;28;20061;-61
2023/03/02 12:11:05;;;;;;;22.83;12.48;;;5.70;99.90;;;;;;5111758;28;20047;-61
2023/03/02 12:13:38;;;;;;;27.48;13.15;;;5.80;99.90;;;;;;5110953;28;20098;-61
2023/03/02 12:16:22;;;;;;;26.45;13.82;;;5.80;99.90;;;;;;5111851;28;20035;-61
2023/03/02 12:18:52;;;;;;;22.38;11.70;;;6.00;99.90;;;;;;5114134;28;20039;-62
2023/03/02 12:21:22;;;;;;;23.75;13.30;;;6.30;99.90;;;;;;5113196;28;20484;-63
2023/03/02 12:23:48;;;;;;;22.70;12.88;;;6.30;99.90;;;;;;5115173;28;20041;-63
2023/03/02 12:26:20;;;;;;;22.42;11.77;;;6.30;99.90;;;;;;5096936;28;20472;-62
2023/03/02 12:29:06;;;;;;;19.23;11.77;;;6.10;99.90;;;;;;5113191;28;20130;-62
2023/03/02 12:31:53;;;;;;;18.83;10.63;;;5.90;99.90;;;;;;5072720;28;20094;-62
2023/03/02 12:34:38;;;;;;;16.92;9.93;;;5.60;99.90;;;;;;5113187;28;20035;-61
2023/03/02 12:37:26;;;;;;;20.13;11.43;;;5.50;99.90;;;;;;5114059;28;20043;-61
2023/03/02 12:40:10;;;;;;;17.75;10.45;;;5.40;99.90;;;;;;5114211;28;20483;-62
2023/03/02 12:42:54;;;;;;;17.38;10.15;;;5.50;99.90;;;;;;5095907;28;20104;-61
2023/03/02 12:45:49;;;;;;;19.42;11.10;;;5.60;99.90;;;;;;5113675;28;20520;-61
2023/03/02 12:48:21;;;;;;;19.52;10.10;;;5.60;99.90;;;;;;5112737;28;20073;-61
2023/03/02 12:50:47;;;;;;;16.42;9.68;;;5.50;99.90;;;;;;5112876;28;20480;-60
2023/03/02 12:53:19;;;;;;;20.15;11.18;;;5.50;99.90;;;;;;5088755;28;20118;-60